Time;durP1;ratioP1;P1;durP2;ratioP2;P2;SDS_P1;SDS_P2;PMS_P1;PMS_P2;Temp;Humidity;BMP_temperature;BMP_pressure;BME280_temperature;BME280_humidity;BME280_pressure;Samples;Min_cycle;Max_cycle;Signal;HPM_P1;HPM_P2
2023/04/03 00:01:22;;;;;;;4.50;1.42;;;;;;;;;;5045730;28;20055;-74
2023/04/03 00:03:48;;;;;;;3.08;1.15;;;;;;;;;;5045693;28;20413;-73
2023/04/03 00:06:14;;;;;;;3.40;1.02;;;;;;;;;;5037455;28;20079;-73
2023/04/03 00:08:41;;;;;;;5.90;1.33;;;;;;;;;;5045739;28;20028;-74
2023/04/03 00:11:07;;;;;;;6.03;1.05;;;;;;;;;;5044428;28;21551;-74
2023/04/03 00:13:34;;;;;;;5.18;1.00;;;;;;;;;;5045903;28;20102;-74
2023/04/03 00:16:00;;;;;;;2.70;1.05;;;;;;;;;;5045878;28;20029;-74
2023/04/03 00:18:26;;;;;;;2.97;1.02;;;;;;;;;;5043599;28;20106;-74
2023/04/03 00:20:52;;;;;;;3.58;1.10;;;;;;;;;;5044885;28;20033;-74
2023/04/03 00:23:18;;;;;;;4.18;0.90;;;;;;;;;;5045843;28;20025;-75
2023/04/03 00:25:44;;;;;;;3.70;1.15;;;;;;;;;;5045555;28;20028;-74
2023/04/03 00:28:11;;;;;;;4.53;1.10;;;;;;;;;;5045028;28;20444;-74
2023/04/03 00:30:37;;;;;;;5.15;1.13;;;;;;;;;;5044442;28;20096;-74
2023/04/03 00:33:03;;;;;;;3.22;0.93;;;;;;;;;;5044808;28;20024;-74
2023/04/03 00:35:30;;;;;;;4.97;1.10;;;;;;;;;;5045557;28;20477;-75
2023/04/03 00:37:56;;;;;;;2.88;0.90;;;;;;;;;;5045140;28;20036;-74
2023/04/03 00:40:24;;;;;;;4.15;1.23;;;;;;;;;;5045825;28;20644;-74
2023/04/03 00:42:52;;;;;;;6.40;1.00;;;;;;;;;;5043421;28;20479;-74
2023/04/03 00:45:18;;;;;;;6.90;1.10;;;;;;;;;;5044489;28;20099;-75
2023/04/03 00:47:44;;;;;;;1.25;0.90;;;;;;;;;;5043671;28;20032;-75
2023/04/03 00:50:11;;;;;;;1.50;0.82;;;;;;;;;;5044591;28;20029;-75
2023/04/03 00:52:37;;;;;;;3.65;1.35;;;;;;;;;;5043284;28;20013;-74
2023/04/03 00:55:05;;;;;;;3.17;1.10;;;;;;;;;;5043075;28;20032;-75
2023/04/03 00:57:32;;;;;;;2.88;1.25;;;;;;;;;;5044816;28;20078;-74
2023/04/03 01:00:01;;;;;;;4.15;1.33;;;;;;;;;;5044275;28;20106;-74
2023/04/03 01:02:27;;;;;;;4.43;1.40;;;;;;;;;;5044802;28;20365;-74
2023/04/03 01:04:53;;;;;;;6.65;1.95;;;;;;;;;;5043388;28;20017;-74
2023/04/03 01:07:24;;;;;;;4.07;1.75;;;;;;;;;;5044505;28;20013;-74
2023/04/03 01:09:52;;;;;;;4.20;1.50;;;;;;;;;;5044888;28;20025;-74
2023/04/03 01:12:24;;;;;;;3.50;1.50;;;;;;;;;;5046184;28;20775;-74
2023/04/03 01:14:50;;;;;;;;;;;;;;;;;;5047151;28;20028;-74
2023/04/03 01:17:33;;;;;;;5.07;1.45;;;;;;;;;;5044687;28;20764;-73
2023/04/03 01:20:17;;;;;;;1.92;1.35;;;;;;;;;;5046428;28;20595;-74
2023/04/03 01:23:02;;;;;;;3.67;1.48;;;;;;;;;;5046354;28;20039;-73
2023/04/03 01:25:28;;;;;;;8.07;1.77;;;;;;;;;;5045750;28;20029;-74
2023/04/03 01:27:54;;;;;;;2.88;1.48;;;;;;;;;;5046704;28;20086;-74
2023/04/03 01:30:21;;;;;;;5.47;1.33;;;;;;;;;;5045170;28;20359;-74
2023/04/03 01:32:47;;;;;;;6.00;1.30;;;;;;;;;;5046637;28;20028;-74
2023/04/03 01:35:14;;;;;;;4.88;1.23;;;;;;;;;;5046545;28;20029;-75
2023/04/03 01:37:40;;;;;;;4.45;1.20;;;;;;;;;;5044647;28;20051;-75
2023/04/03 01:40:06;;;;;;;3.35;1.40;;;;;;;;;;5046244;28;20090;-75
2023/04/03 01:42:33;;;;;;;2.17;0.98;;;;;;;;;;5046552;28;20039;-74
2023/04/03 01:44:59;;;;;;;4.75;1.38;;;;;;;;;;5046181;28;20063;-74
2023/04/03 01:47:25;;;;;;;2.83;1.10;;;;;;;;;;5045594;28;20516;-74
2023/04/03 01:49:51;;;;;;;3.63;1.20;;;;;;;;;;5045018;28;20101;-74
2023/04/03 01:52:17;;;;;;;8.52;1.70;;;;;;;;;;5046121;28;20108;-74
2023/04/03 01:54:44;;;;;;;5.70;2.17;;;;;;;;;;5046048;28;20397;-74
2023/04/03 01:57:10;;;;;;;3.70;1.80;;;;;;;;;;5045817;28;20914;-75
2023/04/03 01:59:36;;;;;;;5.20;1.77;;;;;;;;;;5044789;28;20033;-75
2023/04/03 02:02:02;;;;;;;4.35;1.85;;;;;;;;;;5046327;28;20017;-74
2023/04/03 02:04:28;;;;;;;4.65;1.90;;;;;;;;;;5045664;28;20054;-74
2023/04/03 02:06:54;;;;;;;4.82;1.67;;;;;;;;;;5045907;28;20051;-75
2023/04/03 02:09:21;;;;;;;5.15;1.83;;;;;;;;;;5044226;28;20040;-75
2023/04/03 02:11:47;;;;;;;5.28;1.45;;;;;;;;;;5044887;28;20009;-74
2023/04/03 02:14:13;;;;;;;2.78;1.30;;;;;;;;;;5045575;28;20043;-76
2023/04/03 02:16:39;;;;;;;6.95;1.75;;;;;;;;;;5045881;28;20031;-74
2023/04/03 02:19:06;;;;;;;6.10;1.83;;;;;;;;;;5045598;28;20025;-73
2023/04/03 02:21:32;;;;;;;6.00;1.73;;;;;;;;;;5044621;28;20017;-74
2023/04/03 02:23:59;;;;;;;5.00;1.67;;;;;;;;;;5046312;28;20067;-73
2023/04/03 02:26:25;;;;;;;4.55;1.35;;;;;;;;;;5049982;28;20037;-75
2023/04/03 02:28:51;;;;;;;6.10;1.70;;;;;;;;;;5049816;28;20436;-74
2023/04/03 02:31:18;;;;;;;2.70;1.30;;;;;;;;;;5049572;28;20029;-74
2023/04/03 02:33:44;;;;;;;2.92;1.60;;;;;;;;;;5050138;28;20028;-73
2023/04/03 02:36:10;;;;;;;5.25;1.58;;;;;;;;;;5047870;28;20029;-74
2023/04/03 02:38:36;;;;;;;3.88;1.90;;;;;;;;;;5049747;28;20029;-74
2023/04/03 02:41:04;;;;;;;6.05;1.80;;;;;;;;;;5050139;28;20052;-74
2023/04/03 02:43:30;;;;;;;3.97;1.90;;;;;;;;;;5049416;28;20094;-74
2023/04/03 02:45:56;;;;;;;2.85;1.85;;;;;;;;;;5050203;28;20094;-73
2023/04/03 02:48:23;;;;;;;4.03;1.70;;;;;;;;;;5049402;28;20024;-73
2023/04/03 02:50:49;;;;;;;5.95;1.95;;;;;;;;;;5048046;28;20071;-73
2023/04/03 02:53:15;;;;;;;2.67;1.17;;;;;;;;;;5049376;28;20382;-74
2023/04/03 02:55:42;;;;;;;4.25;1.60;;;;;;;;;;5049539;28;20196;-74
2023/04/03 02:58:08;;;;;;;2.40;0.80;;;;;;;;;;5049564;28;20481;-73
2023/04/03 03:00:35;;;;;;;1.02;0.68;;;;;;;;;;5047605;28;20048;-75
2023/04/03 03:03:01;;;;;;;1.27;0.90;;;;;;;;;;5049337;28;20013;-75
2023/04/03 03:05:27;;;;;;;3.95;0.77;;;;;;;;;;5049077;28;20021;-73
2023/04/03 03:07:54;;;;;;;3.05;1.02;;;;;;;;;;5048783;28;20014;-73
2023/04/03 03:10:20;;;;;;;3.22;0.93;;;;;;;;;;5047666;28;20029;-74
2023/04/03 03:12:47;;;;;;;3.13;1.00;;;;;;;;;;5049408;28;20016;-74
2023/04/03 03:15:13;;;;;;;2.28;0.70;;;;;;;;;;5049256;28;20032;-73
2023/04/03 03:17:39;;;;;;;4.80;0.95;;;;;;;;;;5045504;28;20457;-73
2023/04/03 03:20:06;;;;;;;1.85;0.90;;;;;;;;;;5046584;28;20028;-75
2023/04/03 03:22:33;;;;;;;3.08;0.90;;;;;;;;;;5045212;28;20096;-74
2023/04/03 03:25:00;;;;;;;3.28;0.80;;;;;;;;;;5046786;28;20020;-74
2023/04/03 03:27:26;;;;;;;1.05;0.60;;;;;;;;;;5038379;28;20510;-74
2023/04/03 03:29:53;;;;;;;3.58;0.80;;;;;;;;;;5044431;28;20024;-73
2023/04/03 03:32:19;;;;;;;1.55;0.65;;;;;;;;;;5042558;28;20025;-74
2023/04/03 03:34:45;;;;;;;2.15;0.73;;;;;;;;;;5042938;28;20630;-74
2023/04/03 03:37:11;;;;;;;1.30;0.70;;;;;;;;;;5043387;28;20033;-74
2023/04/03 03:39:37;;;;;;;2.42;0.90;;;;;;;;;;5043583;28;20033;-73
2023/04/03 03:42:04;;;;;;;3.33;0.60;;;;;;;;;;5043405;28;20036;-72
2023/04/03 03:44:30;;;;;;;3.30;0.60;;;;;;;;;;5042317;28;20493;-73
2023/04/03 03:46:56;;;;;;;1.90;0.80;;;;;;;;;;5044249;28;20109;-72
2023/04/03 03:49:22;;;;;;;2.60;0.73;;;;;;;;;;5043406;28;20086;-72
2023/04/03 03:51:48;;;;;;;1.17;0.85;;;;;;;;;;5043536;28;20544;-73
2023/04/03 03:54:15;;;;;;;2.95;0.73;;;;;;;;;;5042914;28;20104;-73
2023/04/03 03:56:41;;;;;;;2.78;0.70;;;;;;;;;;5043811;28;20067;-73
2023/04/03 03:59:07;;;;;;;2.10;0.70;;;;;;;;;;5043416;28;20029;-74
2023/04/03 04:01:33;;;;;;;4.40;0.70;;;;;;;;;;5043210;28;20029;-76
2023/04/03 04:03:59;;;;;;;1.10;0.60;;;;;;;;;;5041525;28;20031;-74
2023/04/03 04:06:25;;;;;;;1.25;0.70;;;;;;;;;;5042786;28;20024;-74
2023/04/03 04:08:52;;;;;;;3.97;0.60;;;;;;;;;;5043283;28;20024;-74
2023/04/03 04:11:18;;;;;;;1.00;0.50;;;;;;;;;;5043915;28;20061;-75
2023/04/03 04:13:45;;;;;;;1.60;0.60;;;;;;;;;;5040194;28;20032;-75
2023/04/03 04:16:11;;;;;;;1.30;0.43;;;;;;;;;;5043037;28;20497;-74
2023/04/03 04:18:37;;;;;;;2.88;0.55;;;;;;;;;;5044335;28;20079;-74
2023/04/03 04:21:03;;;;;;;2.38;0.60;;;;;;;;;;5044133;28;20836;-74
2023/04/03 04:23:29;;;;;;;3.45;0.57;;;;;;;;;;5043973;28;20114;-75
2023/04/03 04:25:55;;;;;;;1.42;0.85;;;;;;;;;;5041680;28;20056;-74
2023/04/03 04:28:22;;;;;;;2.13;0.55;;;;;;;;;;5043063;28;20395;-74
2023/04/03 04:30:48;;;;;;;1.15;0.43;;;;;;;;;;5050971;28;20351;-74
2023/04/03 04:33:14;;;;;;;0.38;0.22;;;;;;;;;;5041983;28;20052;-75
2023/04/03 04:35:42;;;;;;;3.15;0.60;;;;;;;;;;5043281;28;20149;-75
2023/04/03 04:38:08;;;;;;;1.83;0.50;;;;;;;;;;5043012;28;20074;-73
2023/04/03 04:40:35;;;;;;;1.33;0.50;;;;;;;;;;5042966;28;20950;-74
2023/04/03 04:43:01;;;;;;;2.95;0.40;;;;;;;;;;5041713;28;20432;-73
2023/04/03 04:45:27;;;;;;;0.80;0.30;;;;;;;;;;5041790;28;20512;-73
2023/04/03 04:47:55;;;;;;;0.45;0.30;;;;;;;;;;5042055;28;20017;-74
2023/04/03 04:50:21;;;;;;;0.82;0.57;;;;;;;;;;5043062;28;20067;-74
2023/04/03 04:52:48;;;;;;;3.17;0.30;;;;;;;;;;5042795;28;20020;-73
2023/04/03 04:55:14;;;;;;;0.30;0.30;;;;;;;;;;5042107;28;20036;-73
2023/04/03 04:57:40;;;;;;;1.88;0.30;;;;;;;;;;5043212;28;20052;-73
2023/04/03 05:00:07;;;;;;;1.90;0.30;;;;;;;;;;5050560;28;20596;-74
2023/04/03 05:02:33;;;;;;;0.60;0.20;;;;;;;;;;5044161;28;20029;-72
2023/04/03 05:04:59;;;;;;;1.95;0.30;;;;;;;;;;5045715;28;20043;-72
2023/04/03 05:07:25;;;;;;;1.75;0.50;;;;;;;;;;5047381;28;20036;-72
2023/04/03 05:09:51;;;;;;;0.35;0.20;;;;;;;;;;5047802;28;20025;-72
2023/04/03 05:12:17;;;;;;;0.38;0.20;;;;;;;;;;5040939;28;20029;-73
2023/04/03 05:14:44;;;;;;;1.50;0.35;;;;;;;;;;5047446;28;20474;-73
2023/04/03 05:17:10;;;;;;;0.30;0.30;;;;;;;;;;5046856;28;20053;-72
2023/04/03 05:19:36;;;;;;;2.15;0.60;;;;;;;;;;5044686;28;20037;-75
2023/04/03 05:22:02;;;;;;;1.25;0.40;;;;;;;;;;5046727;28;20023;-73
2023/04/03 05:24:28;;;;;;;3.08;0.50;;;;;;;;;;5045955;28;20031;-73
2023/04/03 05:26:54;;;;;;;0.93;0.50;;;;;;;;;;5046259;28;20082;-73
2023/04/03 05:29:21;;;;;;;0.80;0.50;;;;;;;;;;5044567;28;20025;-73
2023/04/03 05:31:50;;;;;;;2.78;0.75;;;;;;;;;;5045994;28;20024;-73
2023/04/03 05:34:16;;;;;;;3.88;1.67;;;;;;;;;;5046420;28;20036;-73
2023/04/03 05:36:42;;;;;;;2.15;0.80;;;;;;;;;;5046130;28;20029;-73
2023/04/03 05:39:08;;;;;;;1.60;0.80;;;;;;;;;;5044413;28;20033;-74
2023/04/03 05:41:35;;;;;;;0.90;0.50;;;;;;;;;;5046060;28;20021;-73
2023/04/03 05:44:01;;;;;;;3.28;0.50;;;;;;;;;;5044648;28;20027;-73
2023/04/03 05:46:27;;;;;;;0.63;0.40;;;;;;;;;;5044171;28;20025;-73
2023/04/03 05:48:53;;;;;;;3.40;0.50;;;;;;;;;;5044232;28;20431;-73
2023/04/03 05:51:22;;;;;;;4.10;0.60;;;;;;;;;;5044928;28;20064;-73
2023/04/03 05:53:48;;;;;;;1.23;0.57;;;;;;;;;;5042429;28;20115;-73
2023/04/03 05:56:14;;;;;;;0.80;0.47;;;;;;;;;;5044723;28;20029;-73
2023/04/03 05:58:40;;;;;;;0.70;0.35;;;;;;;;;;5044625;28;20025;-73
2023/04/03 06:01:07;;;;;;;0.47;0.40;;;;;;;;;;5045697;28;20112;-73
2023/04/03 06:03:33;;;;;;;1.70;0.70;;;;;;;;;;5044276;28;20571;-73
2023/04/03 06:06:00;;;;;;;1.13;0.28;;;;;;;;;;5045737;28;20025;-73
2023/04/03 06:08:26;;;;;;;3.40;0.50;;;;;;;;;;5045681;28;20469;-73
2023/04/03 06:10:52;;;;;;;0.50;0.40;;;;;;;;;;5045336;28;20032;-74
2023/04/03 06:13:18;;;;;;;0.80;0.40;;;;;;;;;;5045827;28;20039;-73
2023/04/03 06:15:44;;;;;;;0.80;0.40;;;;;;;;;;5045339;28;20024;-73
2023/04/03 06:18:11;;;;;;;11.40;0.85;;;;;;;;;;5044638;28;20053;-75
2023/04/03 06:20:38;;;;;;;2.45;0.35;;;;;;;;;;5043484;28;20032;-77
2023/04/03 06:23:04;;;;;;;0.50;0.35;;;;;;;;;;5044270;28;20435;-76
2023/04/03 06:25:31;;;;;;;2.90;0.52;;;;;;;;;;5045735;28;20108;-76
2023/04/03 06:27:57;;;;;;;0.75;0.50;;;;;;;;;;5044665;28;20683;-77
2023/04/03 06:30:24;;;;;;;4.03;0.50;;;;;;;;;;5044679;28;20036;-77
2023/04/03 06:32:50;;;;;;;2.95;1.20;;;;;;;;;;5043632;28;20047;-77
2023/04/03 06:35:16;;;;;;;2.03;0.50;;;;;;;;;;5045748;28;20128;-75
2023/04/03 06:37:42;;;;;;;1.17;0.52;;;;;;;;;;5045334;28;20033;-74
2023/04/03 06:40:15;;;;;;;0.85;0.47;;;;;;;;;;5044875;28;20048;-74
2023/04/03 06:42:41;;;;;;;1.42;0.68;;;;;;;;;;5051222;28;20033;-74
2023/04/03 06:45:08;;;;;;;0.95;0.43;;;;;;;;;;5045181;28;20021;-74
2023/04/03 06:47:34;;;;;;;1.33;0.50;;;;;;;;;;5044702;28;20021;-74
2023/04/03 06:50:00;;;;;;;0.55;0.40;;;;;;;;;;5045067;28;20029;-74
2023/04/03 06:52:27;;;;;;;1.15;0.63;;;;;;;;;;5045471;28;20025;-75
2023/04/03 06:54:56;;;;;;;2.53;0.73;;;;;;;;;;5043893;28;20041;-74
2023/04/03 06:57:24;;;;;;;1.35;0.60;;;;;;;;;;5045617;28;20036;-74
2023/04/03 06:59:50;;;;;;;3.58;0.82;;;;;;;;;;5047400;28;20068;-74
2023/04/03 07:02:16;;;;;;;2.53;0.80;;;;;;;;;;5045431;28;20452;-74
2023/04/03 07:04:42;;;;;;;1.42;0.68;;;;;;;;;;5045353;28;20461;-74
2023/04/03 07:07:09;;;;;;;2.97;0.70;;;;;;;;;;5044555;28;20083;-74
2023/04/03 07:09:35;;;;;;;1.67;0.60;;;;;;;;;;5045173;28;20029;-74
2023/04/03 07:12:01;;;;;;;4.22;1.48;;;;;;;;;;5046345;28;20055;-74
2023/04/03 07:14:27;;;;;;;1.02;0.50;;;;;;;;;;5048552;28;20017;-74
2023/04/03 07:16:53;;;;;;;2.97;0.60;;;;;;;;;;5047483;28;20084;-74
2023/04/03 07:19:19;;;;;;;1.77;0.70;;;;;;;;;;5053014;28;20108;-73
2023/04/03 07:21:46;;;;;;;1.45;0.70;;;;;;;;;;5052029;28;20029;-74
2023/04/03 07:24:12;;;;;;;0.93;0.63;;;;;;;;;;5047924;28;20025;-74
2023/04/03 07:26:38;;;;;;;1.52;0.60;;;;;;;;;;5053552;28;20040;-73
2023/04/03 07:29:04;;;;;;;0.90;0.57;;;;;;;;;;5049498;28;20134;-74
2023/04/03 07:31:31;;;;;;;1.00;0.60;;;;;;;;;;5048943;28;20481;-74
2023/04/03 07:33:57;;;;;;;2.30;0.95;;;;;;;;;;5052174;28;21034;-73
2023/04/03 07:36:24;;;;;;;2.65;0.70;;;;;;;;;;5047922;28;20096;-74
2023/04/03 07:38:50;;;;;;;1.33;0.65;;;;;;;;;;5048335;28;20017;-73
2023/04/03 07:41:18;;;;;;;2.58;1.00;;;;;;;;;;5046675;28;20040;-73
2023/04/03 07:43:44;;;;;;;1.77;0.73;;;;;;;;;;5048428;28;20017;-73
2023/04/03 07:46:11;;;;;;;3.22;0.80;;;;;;;;;;5048564;28;20028;-73
2023/04/03 07:48:37;;;;;;;2.65;0.80;;;;;;;;;;5052965;28;20020;-74
2023/04/03 07:51:04;;;;;;;1.80;0.93;;;;;;;;;;5053489;28;20033;-73
2023/04/03 07:53:30;;;;;;;2.25;0.90;;;;;;;;;;5048571;28;20469;-73
2023/04/03 07:55:57;;;;;;;2.45;0.82;;;;;;;;;;5048210;28;20496;-73
2023/04/03 07:58:24;;;;;;;3.05;0.82;;;;;;;;;;5053058;28;20018;-74
2023/04/03 08:00:50;;;;;;;2.38;1.00;;;;;;;;;;5048220;28;20047;-74
2023/04/03 08:03:17;;;;;;;0.90;0.55;;;;;;;;;;5050975;28;20032;-73
2023/04/03 08:05:44;;;;;;;2.63;1.02;;;;;;;;;;5049019;28;20040;-73
2023/04/03 08:08:12;;;;;;;1.50;0.93;;;;;;;;;;5046367;28;20078;-73
2023/04/03 08:10:38;;;;;;;2.55;1.30;;;;;;;;;;5047196;28;20063;-74
2023/04/03 08:13:05;;;;;;;3.22;1.48;;;;;;;;;;5045266;28;20103;-74
2023/04/03 08:15:31;;;;;;;3.72;1.40;;;;;;;;;;5047937;28;20024;-73
2023/04/03 08:17:58;;;;;;;4.85;1.40;;;;;;;;;;5046495;28;20056;-74
2023/04/03 08:20:24;;;;;;;9.10;2.15;;;;;;;;;;5046394;28;20033;-74
2023/04/03 08:22:50;;;;;;;6.70;1.55;;;;;;;;;;5045616;28;20086;-74
2023/04/03 08:25:17;;;;;;;4.28;1.48;;;;;;;;;;5050278;28;20035;-74
2023/04/03 08:27:43;;;;;;;2.80;1.92;;;;;;;;;;5052645;28;20108;-74
2023/04/03 08:30:10;;;;;;;6.47;1.70;;;;;;;;;;5045698;28;20136;-74
2023/04/03 08:32:36;;;;;;;5.13;1.65;;;;;;;;;;5047901;28;20396;-74
2023/04/03 08:35:03;;;;;;;2.83;1.48;;;;;;;;;;5047262;28;20028;-74
2023/04/03 08:37:30;;;;;;;2.40;1.33;;;;;;;;;;5047461;28;20013;-74
2023/04/03 08:39:56;;;;;;;3.58;2.20;;;;;;;;;;5047138;28;20025;-74
2023/04/03 08:42:22;;;;;;;3.60;1.70;;;;;;;;;;5053355;28;20025;-74
2023/04/03 08:44:54;;;;;;;3.15;1.40;;;;;;;;;;5047425;28;20013;-73
2023/04/03 08:47:30;;;;;;;4.90;1.70;;;;;;;;;;5049891;28;20025;-74
2023/04/03 08:50:03;;;;;;;4.88;1.70;;;;;;;;;;5050212;28;20037;-73
2023/04/03 08:52:36;;;;;;;5.00;1.42;;;;;;;;;;5038802;28;20094;-74
2023/04/03 08:55:05;;;;;;;6.65;1.95;;;;;;;;;;5055037;28;20158;-74
2023/04/03 08:57:36;;;;;;;6.20;1.83;;;;;;;;;;5046582;28;20029;-73
2023/04/03 09:00:16;;;;;;;4.90;1.80;;;;;;;;;;5046848;28;20032;-74
2023/04/03 09:02:47;;;;;;;3.35;1.55;;;;;;;;;;5041354;28;20020;-73
2023/04/03 09:05:15;;;;;;;3.70;2.00;;;;;;;;;;5044812;28;20106;-73
2023/04/03 09:07:47;;;;;;;5.55;2.25;;;;;;;;;;5046553;28;20078;-74
2023/04/03 09:10:13;;;;;;;;;;;;;;;;;;5054222;28;20033;-74
2023/04/03 09:12:49;;;;;;;5.53;2.03;;;;;;;;;;5046803;28;20432;-73
2023/04/03 09:15:19;;;;;;;4.90;1.73;;;;;;;;;;5045159;28;20029;-74
2023/04/03 09:17:45;;;;;;;9.38;2.60;;;;;;;;;;5046008;28;20041;-73
2023/04/03 09:20:35;;;;;;;8.55;2.40;;;;;;;;;;5044951;28;20040;-74
2023/04/03 09:23:01;;;;;;;6.90;1.95;;;;;;;;;;5045025;28;20372;-74
2023/04/03 09:25:30;;;;;;;6.28;2.10;;;;;;;;;;5044761;28;20341;-74
2023/04/03 09:27:56;;;;;;;6.25;2.00;;;;;;;;;;5046380;28;20098;-74
2023/04/03 09:30:23;;;;;;;6.32;1.65;;;;;;;;;;5045804;28;20090;-73
2023/04/03 09:32:51;;;;;;;6.13;2.22;;;;;;;;;;5044445;28;20128;-74
2023/04/03 09:35:20;;;;;;;6.43;1.98;;;;;;;;;;5045295;28;20074;-73
2023/04/03 09:37:47;;;;;;;8.90;2.10;;;;;;;;;;5045999;28;20025;-73
2023/04/03 09:40:26;;;;;;;4.38;1.90;;;;;;;;;;5044932;28;20044;-73
2023/04/03 09:43:00;;;;;;;6.00;2.05;;;;;;;;;;5045522;28;20124;-74
2023/04/03 09:45:28;;;;;;;7.65;2.05;;;;;;;;;;5045302;28;20515;-74
2023/04/03 09:48:07;;;;;;;6.72;2.13;;;;;;;;;;5045641;28;20023;-74
2023/04/03 09:50:35;;;;;;;6.93;1.90;;;;;;;;;;5037851;28;20032;-74
2023/04/03 09:53:07;;;;;;;6.15;1.90;;;;;;;;;;5043737;28;20025;-74
2023/04/03 09:55:33;;;;;;;6.50;2.17;;;;;;;;;;5045015;28;20481;-74
2023/04/03 09:58:01;;;;;;;7.05;1.92;;;;;;;;;;5045438;28;20437;-74
2023/04/03 10:00:31;;;;;;;8.23;2.17;;;;;;;;;;5044942;28;20048;-74
2023/04/03 10:02:58;;;;;;;14.43;2.50;;;;;;;;;;5045412;28;20421;-74
2023/04/03 10:05:35;;;;;;;5.72;2.35;;;;;;;;;;5043500;28;20108;-74
2023/04/03 10:08:13;;;;;;;8.93;2.47;;;;;;;;;;5045550;28;20013;-74
2023/04/03 10:10:49;;;;;;;6.40;1.77;;;;;;;;;;5038329;28;20021;-74
2023/04/03 10:13:20;;;;;;;7.93;2.13;;;;;;;;;;5043424;28;20099;-75
2023/04/03 10:16:02;;;;;;;9.30;2.10;;;;;;;;;;5044841;28;20111;-74
2023/04/03 10:18:35;;;;;;;7.05;2.25;;;;;;;;;;5044732;28;20053;-73
2023/04/03 10:21:10;;;;;;;11.48;2.90;;;;;;;;;;5044815;28;20049;-73
2023/04/03 10:23:54;;;;;;;6.95;2.15;;;;;;;;;;5044717;28;20027;-73
2023/04/03 10:26:39;;;;;;;12.10;2.58;;;;;;;;;;5042036;28;20041;-74
2023/04/03 10:29:16;;;;;;;6.50;2.17;;;;;;;;;;5044255;28;20029;-74
2023/04/03 10:31:42;;;;;;;5.28;2.13;;;;;;;;;;5037857;28;20036;-74
2023/04/03 10:34:19;;;;;;;8.10;2.35;;;;;;;;;;5045570;28;20092;-74
2023/04/03 10:36:52;;;;;;;8.63;1.80;;;;;;;;;;5038409;28;20055;-74
2023/04/03 10:39:28;;;;;;;7.05;2.45;;;;;;;;;;5041770;28;20108;-74
2023/04/03 10:41:54;;;;;;;8.32;2.42;;;;;;;;;;5045103;28;20087;-74
2023/04/03 10:44:20;;;;;;;8.05;2.35;;;;;;;;;;5045428;28;20017;-74
2023/04/03 10:46:52;;;;;;;6.40;2.47;;;;;;;;;;5048498;28;20066;-75
2023/04/03 10:49:28;;;;;;;5.47;2.10;;;;;;;;;;5048124;28;20033;-74
2023/04/03 10:52:04;;;;;;;7.38;1.98;;;;;;;;;;5048193;28;20029;-75
2023/04/03 10:55:03;;;;;;;8.05;2.25;;;;;;;;;;5049276;28;20036;-74
2023/04/03 10:57:30;;;;;;;8.77;2.35;;;;;;;;;;5021949;28;20041;-74
2023/04/03 11:00:10;;;;;;;8.52;1.77;;;;;;;;;;5045727;28;20078;-74
2023/04/03 11:02:46;;;;;;;4.82;2.03;;;;;;;;;;5060244;28;20036;-75
2023/04/03 11:05:19;;;;;;;9.95;2.90;;;;;;;;;;5047121;28;20029;-75
2023/04/03 11:07:50;;;;;;;6.20;2.20;;;;;;;;;;5045799;28;20096;-74
2023/04/03 11:10:21;;;;;;;9.40;2.70;;;;;;;;;;5047434;28;20068;-73
2023/04/03 11:12:52;;;;;;;10.85;3.33;;;;;;;;;;5046946;28;20017;-73
2023/04/03 11:15:21;;;;;;;19.25;3.70;;;;;;;;;;5047712;28;20037;-74
2023/04/03 11:17:59;;;;;;;10.75;3.80;;;;;;;;;;5045767;28;20076;-74
2023/04/03 11:20:37;;;;;;;11.63;3.60;;;;;;;;;;5046181;28;20178;-73
2023/04/03 11:23:22;;;;;;;12.05;3.00;;;;;;;;;;5046152;28;20017;-74
2023/04/03 11:25:51;;;;;;;8.25;2.75;;;;;;;;;;5048392;28;20021;-73
2023/04/03 11:28:17;;;;;;;13.63;3.30;;;;;;;;;;5048295;28;20040;-74
2023/04/03 11:30:46;;;;;;;7.85;3.05;;;;;;;;;;5047790;28;20036;-74
2023/04/03 11:33:24;;;;;;;11.73;3.92;;;;;;;;;;5046990;28;20086;-74
2023/04/03 11:36:03;;;;;;;12.75;6.05;;;;;;;;;;5041388;28;20423;-72
2023/04/03 11:38:34;;;;;;;9.40;5.13;;;;;;;;;;5048105;28;20021;-73
2023/04/03 11:41:01;;;;;;;10.90;5.20;;;;;;;;;;5047518;28;20102;-73
2023/04/03 11:43:29;;;;;;;9.75;3.85;;;;;;;;;;5041383;28;20052;-76
2023/04/03 11:46:03;;;;;;;14.48;2.92;;;;;;;;;;5043433;28;20120;-77
2023/04/03 11:48:31;;;;;;;9.18;2.95;;;;;;;;;;5048004;28;20033;-75
2023/04/03 11:51:01;;;;;;;16.63;3.92;;;;;;;;;;5047830;28;20017;-75
2023/04/03 11:53:34;;;;;;;20.85;4.10;;;;;;;;;;5047749;28;20456;-74
2023/04/03 11:56:01;;;;;;;14.30;3.20;;;;;;;;;;5045871;28;20025;-74
2023/04/03 11:58:28;;;;;;;10.98;3.63;;;;;;;;;;5051154;28;20608;-75
2023/04/03 12:00:55;;;;;;;15.80;3.17;;;;;;;;;;5047118;28;20083;-75
2023/04/03 12:06:14;;;;;;;10.48;3.33;;;;;;;;;;5046284;28;20370;-74
2023/04/03 12:08:40;;;;;;;11.23;3.55;;;;;;;;;;5045464;28;20535;-75
2023/04/03 12:11:13;;;;;;;9.63;3.17;;;;;;;;;;5046916;28;20033;-73
2023/04/03 12:13:42;;;;;;;10.35;2.88;;;;;;;;;;5047418;28;20025;-74
2023/04/03 12:16:19;;;;;;;14.07;3.20;;;;;;;;;;5046223;28;20526;-76
2023/04/03 12:18:58;;;;;;;11.25;3.50;;;;;;;;;;5046459;28;20116;-76
2023/04/03 12:21:24;;;;;;;12.93;3.05;;;;;;;;;;5047786;28;20052;-74
2023/04/03 12:24:09;;;;;;;11.82;3.55;;;;;;;;;;5046868;28;20120;-75
2023/04/03 12:26:41;;;;;;;10.20;2.83;;;;;;;;;;5045543;28;20029;-74
2023/04/03 12:29:28;;;;;;;13.18;3.20;;;;;;;;;;5047172;28;20029;-74
2023/04/03 12:32:12;;;;;;;10.48;3.38;;;;;;;;;;5047140;28;20025;-75
2023/04/03 12:34:42;;;;;;;24.50;4.80;;;;;;;;;;5044629;28;20021;-75
2023/04/03 12:37:28;;;;;;;14.50;3.42;;;;;;;;;;5047307;28;20553;-75
2023/04/03 12:40:20;;;;;;;14.45;3.92;;;;;;;;;;5045463;28;20053;-75
2023/04/03 12:42:49;;;;;;;10.23;3.28;;;;;;;;;;5030647;28;20051;-74
2023/04/03 12:45:23;;;;;;;14.77;4.07;;;;;;;;;;5045480;28;20469;-75
2023/04/03 12:47:54;;;;;;;13.73;3.47;;;;;;;;;;5046839;28;20029;-75
2023/04/03 12:50:24;;;;;;;10.40;3.58;;;;;;;;;;5046972;28;20033;-75
2023/04/03 12:53:02;;;;;;;12.07;3.00;;;;;;;;;;5046566;28;20025;-75
2023/04/03 12:55:28;;;;;;;17.27;4.78;;;;;;;;;;5045789;28;20059;-74
2023/04/03 12:57:55;;;;;;;9.93;3.70;;;;;;;;;;5046827;28;20688;-75
2023/04/03 13:00:21;;;;;;;18.10;4.20;;;;;;;;;;5046267;28;20704;-76
2023/04/03 13:02:48;;;;;;;13.52;3.53;;;;;;;;;;5046704;28;20047;-75
2023/04/03 13:05:16;;;;;;;15.82;3.75;;;;;;;;;;5044997;28;20366;-75
2023/04/03 13:07:43;;;;;;;12.77;3.90;;;;;;;;;;5046252;28;20081;-74
2023/04/03 13:10:09;;;;;;;10.93;3.58;;;;;;;;;;5044161;28;20017;-75
2023/04/03 13:12:55;;;;;;;13.57;3.92;;;;;;;;;;5046779;28;20025;-75
2023/04/03 13:15:27;;;;;;;13.60;3.45;;;;;;;;;;5024231;28;20029;-75
2023/04/03 13:17:54;;;;;;;10.57;3.30;;;;;;;;;;5044646;28;20116;-75
2023/04/03 13:20:20;;;;;;;14.77;3.80;;;;;;;;;;5046363;28;20289;-75
2023/04/03 13:22:50;;;;;;;12.38;3.50;;;;;;;;;;5046457;28;20024;-76
2023/04/03 13:25:17;;;;;;;13.45;3.28;;;;;;;;;;5046880;28;20115;-75
2023/04/03 13:27:44;;;;;;;8.00;3.17;;;;;;;;;;5044623;28;20096;-75
2023/04/03 13:30:25;;;;;;;16.83;3.83;;;;;;;;;;5045999;28;20021;-75
2023/04/03 13:32:51;;;;;;;21.73;3.27;;;;;;;;;;5046269;28;20020;-75
2023/04/03 13:35:36;;;;;;;13.27;3.38;;;;;;;;;;5045052;28;20128;-75
2023/04/03 13:38:05;;;;;;;15.77;3.45;;;;;;;;;;5046215;28;20029;-75
2023/04/03 13:40:32;;;;;;;5.97;3.05;;;;;;;;;;5043088;28;20844;-75
2023/04/03 13:43:06;;;;;;;11.75;3.17;;;;;;;;;;5045677;28;20031;-75
2023/04/03 13:45:33;;;;;;;12.07;3.72;;;;;;;;;;5046177;28;20028;-75
2023/04/03 13:48:11;;;;;;;12.55;2.88;;;;;;;;;;5045364;28;20120;-75
2023/04/03 13:50:56;;;;;;;12.80;3.25;;;;;;;;;;5045736;28;20070;-75
2023/04/03 13:53:23;;;;;;;11.90;3.08;;;;;;;;;;5040241;28;20021;-76
2023/04/03 13:56:04;;;;;;;10.88;2.88;;;;;;;;;;5028177;28;20170;-76
2023/04/03 13:58:31;;;;;;;10.98;2.72;;;;;;;;;;5045942;28;20017;-75
2023/04/03 14:01:11;;;;;;;12.00;2.90;;;;;;;;;;5045096;28;20040;-76
2023/04/03 14:03:44;;;;;;;14.23;3.53;;;;;;;;;;5044143;28;20029;-75
2023/04/03 14:06:15;;;;;;;14.45;3.83;;;;;;;;;;5036973;28;20498;-76
2023/04/03 14:08:41;;;;;;;11.63;2.70;;;;;;;;;;5044873;28;20029;-75
2023/04/03 14:11:12;;;;;;;10.80;2.83;;;;;;;;;;5045278;28;20017;-76
2023/04/03 14:13:38;;;;;;;10.82;3.47;;;;;;;;;;5045527;28;20058;-73
2023/04/03 14:16:05;;;;;;;7.35;3.08;;;;;;;;;;5045563;28;20025;-71
2023/04/03 14:18:31;;;;;;;11.05;2.95;;;;;;;;;;5044187;28;20528;-76
2023/04/03 14:20:57;;;;;;;10.82;3.33;;;;;;;;;;5048585;28;20059;-75
2023/04/03 14:23:24;;;;;;;11.85;2.65;;;;;;;;;;5051709;28;20491;-73
2023/04/03 14:25:50;;;;;;;13.35;3.08;;;;;;;;;;5052209;28;20044;-73
2023/04/03 14:28:20;;;;;;;6.75;2.60;;;;;;;;;;5052098;28;20163;-74
2023/04/03 14:30:47;;;;;;;15.00;2.58;;;;;;;;;;5047300;28;20029;-75
2023/04/03 14:33:15;;;;;;;14.23;2.90;;;;;;;;;;5042415;28;20031;-75
2023/04/03 14:35:42;;;;;;;11.00;2.95;;;;;;;;;;5047216;28;20028;-75
2023/04/03 14:38:27;;;;;;;11.27;2.97;;;;;;;;;;5046339;28;20492;-75
2023/04/03 14:40:54;;;;;;;6.97;2.55;;;;;;;;;;5044312;28;20186;-75
2023/04/03 14:43:20;;;;;;;9.02;2.55;;;;;;;;;;5045222;28;20579;-75
2023/04/03 14:45:48;;;;;;;14.48;3.00;;;;;;;;;;5045834;28;20422;-75
2023/04/03 14:48:19;;;;;;;12.98;2.83;;;;;;;;;;5046079;28;20021;-75
2023/04/03 14:50:46;;;;;;;10.02;2.92;;;;;;;;;;5045086;28;20021;-73
2023/04/03 14:53:14;;;;;;;7.00;2.25;;;;;;;;;;5046775;28;20029;-75